createdAt,value
2023-03-04T00:02:18.133Z,76.82
2023-03-04T00:04:44.858Z,76.70
2023-03-04T00:07:11.664Z,76.32
2023-03-04T00:09:38.285Z,76.32
2023-03-04T00:12:05.129Z,76.32
2023-03-04T00:14:31.795Z,77.52
2023-03-04T00:16:58.474Z,77.77
2023-03-04T00:19:27.449Z,77.08
2023-03-04T00:21:54.044Z,78.64
2023-03-04T00:24:22.572Z,78.46
2023-03-04T00:26:49.257Z,81.64
2023-03-04T00:29:15.933Z,79.41
2023-03-04T00:31:42.956Z,78.19
2023-03-04T00:34:09.703Z,78.61
2023-03-04T00:36:36.344Z,79.08
2023-03-04T00:39:02.989Z,78.51
2023-03-04T00:41:29.647Z,79.71
2023-03-04T00:43:56.389Z,78.04
2023-03-04T00:46:23.096Z,78.03
2023-03-04T00:48:49.768Z,79.18
2023-03-04T00:51:16.400Z,79.16
2023-03-04T00:53:43.053Z,78.12
2023-03-04T00:56:09.834Z,79.23
2023-03-04T00:58:36.713Z,78.06
2023-03-04T01:01:03.438Z,78.95
2023-03-04T01:03:30.059Z,78.62
2023-03-04T01:05:56.900Z,79.33
2023-03-04T01:08:23.585Z,78.04
2023-03-04T01:10:51.652Z,79.24
2023-03-04T01:13:18.979Z,79.44
2023-03-04T01:15:45.737Z,82.25
2023-03-04T01:18:12.608Z,80.94
2023-03-04T01:20:39.328Z,81.80
2023-03-04T01:23:06.119Z,79.48
2023-03-04T01:25:32.837Z,79.54
2023-03-04T01:27:59.449Z,79.96
2023-03-04T01:30:26.088Z,87.25
2023-03-04T01:32:52.781Z,85.60
2023-03-04T01:35:19.675Z,83.68
2023-03-04T01:37:46.358Z,85.57
2023-03-04T01:40:14.224Z,84.75
2023-03-04T01:42:41.100Z,84.50
2023-03-04T01:45:12.531Z,84.69
2023-03-04T01:47:39.448Z,89.04
2023-03-04T01:50:17.929Z,95.25
2023-03-04T01:52:44.616Z,95.38
2023-03-04T01:55:16.805Z,92.55
2023-03-04T01:57:44.254Z,90.09
2023-03-04T02:00:20.346Z,87.00
2023-03-04T02:02:50.297Z,86.13
2023-03-04T02:05:17.330Z,86.41
2023-03-04T02:07:43.922Z,87.43
2023-03-04T02:10:12.101Z,85.46
2023-03-04T02:12:39.650Z,85.34
2023-03-04T02:15:07.160Z,85.53
2023-03-04T02:17:33.812Z,84.42
2023-03-04T02:20:09.425Z,84.04
2023-03-04T02:22:42.472Z,82.54
2023-03-04T02:25:22.384Z,81.94
2023-03-04T02:27:49.023Z,82.03
2023-03-04T02:30:21.480Z,83.05
2023-03-04T02:32:48.154Z,82.94
2023-03-04T02:35:18.077Z,83.61
2023-03-04T02:37:45.241Z,83.23
2023-03-04T02:40:31.285Z,85.52
2023-03-04T02:43:01.249Z,84.18
2023-03-04T02:45:51.199Z,83.56
2023-03-04T02:48:20.756Z,83.26
2023-03-04T02:50:52.793Z,85.91
2023-03-04T02:53:20.713Z,84.94
2023-03-04T02:55:48.297Z,84.05
2023-03-04T02:58:15.245Z,85.81
2023-03-04T03:00:42.180Z,86.49
2023-03-04T03:03:09.239Z,86.84
2023-03-04T03:05:38.212Z,86.87
2023-03-04T03:08:05.446Z,89.59
2023-03-04T03:10:32.229Z,89.21
2023-03-04T03:12:58.887Z,87.21
2023-03-04T03:15:25.674Z,85.90
2023-03-04T03:17:52.315Z,85.91
2023-03-04T03:20:19.647Z,84.42
2023-03-04T03:22:47.347Z,83.59
2023-03-04T03:25:16.558Z,82.90
2023-03-04T03:27:43.385Z,85.44
2023-03-04T03:30:12.493Z,84.68
2023-03-04T03:32:39.221Z,84.26
2023-03-04T03:35:06.241Z,82.86
2023-03-04T03:37:33.217Z,83.29
2023-03-04T03:39:59.849Z,82.56
2023-03-04T03:42:26.533Z,83.24
2023-03-04T03:44:53.235Z,84.69
2023-03-04T03:47:21.691Z,84.55
2023-03-04T03:49:48.851Z,83.13
2023-03-04T03:52:15.588Z,82.59
2023-03-04T03:54:42.277Z,83.17
2023-03-04T03:57:08.997Z,82.80
2023-03-04T03:59:35.692Z,82.34
2023-03-04T04:02:02.527Z,82.15
2023-03-04T04:04:29.436Z,82.70
2023-03-04T04:06:56.157Z,84.03
2023-03-04T04:09:22.893Z,83.38
2023-03-04T04:11:52.294Z,84.16
2023-03-04T04:14:18.989Z,83.87
2023-03-04T04:16:45.656Z,82.58
2023-03-04T04:19:20.016Z,82.23
2023-03-04T04:21:47.113Z,81.32
2023-03-04T04:24:14.253Z,81.91
2023-03-04T04:26:41.269Z,83.34
2023-03-04T04:29:09.304Z,82.85
2023-03-04T04:31:36.019Z,81.33
2023-03-04T04:34:02.636Z,81.72
2023-03-04T04:36:29.323Z,81.82
2023-03-04T04:38:56.054Z,81.44
2023-03-04T04:41:26.353Z,80.66
2023-03-04T04:43:53.397Z,81.25
2023-03-04T04:46:20.587Z,81.49
2023-03-04T04:48:47.559Z,80.88
2023-03-04T04:51:14.658Z,80.75
2023-03-04T04:53:41.308Z,80.54
2023-03-04T04:56:15.377Z,81.61
2023-03-04T04:58:43.084Z,80.81
2023-03-04T05:01:10.391Z,81.66
2023-03-04T05:03:38.336Z,81.76
2023-03-04T05:06:07.026Z,80.86
2023-03-04T05:08:34.505Z,80.93
2023-03-04T05:11:02.174Z,80.20
2023-03-04T05:13:28.828Z,79.52
2023-03-04T05:15:56.884Z,80.32
2023-03-04T05:18:25.994Z,81.58
2023-03-04T05:20:56.553Z,81.75
2023-03-04T05:23:24.062Z,81.45
2023-03-04T05:25:51.425Z,81.78
2023-03-04T05:28:18.310Z,82.82
2023-03-04T05:30:46.303Z,83.86
2023-03-04T05:33:14.836Z,83.33
2023-03-04T05:35:42.518Z,83.95
2023-03-04T05:38:11.318Z,83.07
2023-03-04T05:40:38.908Z,82.29
2023-03-04T05:43:05.601Z,83.05
2023-03-04T05:45:32.389Z,80.93
2023-03-04T05:47:59.375Z,79.56
2023-03-04T05:50:26.898Z,77.05
2023-03-04T05:52:53.572Z,77.94
2023-03-04T05:55:20.482Z,77.57
2023-03-04T05:57:47.420Z,77.69
2023-03-04T06:00:15.548Z,78.27
2023-03-04T06:02:43.411Z,79.46
2023-03-04T06:05:12.872Z,79.75
2023-03-04T06:07:39.619Z,80.79
2023-03-04T06:10:07.098Z,79.64
2023-03-04T06:12:37.445Z,80.32
2023-03-04T06:15:04.586Z,79.02
2023-03-04T06:17:31.247Z,76.86
2023-03-04T06:19:58.057Z,76.17
2023-03-04T06:22:24.724Z,78.58
2023-03-04T06:24:51.379Z,77.90
2023-03-04T06:27:18.007Z,75.71
2023-03-04T06:29:44.785Z,76.41
2023-03-04T06:32:11.468Z,75.46
2023-03-04T06:34:38.374Z,71.16
2023-03-04T06:37:05.040Z,71.90
2023-03-04T06:39:31.840Z,72.10
2023-03-04T06:41:58.796Z,72.82
2023-03-04T06:44:25.433Z,71.61
2023-03-04T06:46:52.220Z,70.67
2023-03-04T06:49:19.141Z,73.44
2023-03-04T06:51:45.919Z,74.37
2023-03-04T06:54:12.539Z,75.42
2023-03-04T06:56:39.254Z,75.03
2023-03-04T06:59:06.007Z,73.69
2023-03-04T07:01:32.977Z,75.60
2023-03-04T07:03:59.958Z,75.17
2023-03-04T07:06:28.191Z,74.14
2023-03-04T07:08:55.665Z,74.67
2023-03-04T07:11:23.476Z,75.11
2023-03-04T07:13:51.201Z,76.65
2023-03-04T07:16:20.787Z,76.80
2023-03-04T07:18:47.595Z,78.67
2023-03-04T07:21:15.244Z,79.13
2023-03-04T07:23:44.729Z,78.50
2023-03-04T07:26:11.939Z,77.40
2023-03-04T07:28:38.953Z,77.21
2023-03-04T07:31:23.524Z,75.79
2023-03-04T07:33:51.569Z,77.01
2023-03-04T07:36:18.248Z,75.29
2023-03-04T07:38:49.186Z,74.74
2023-03-04T07:41:16.717Z,77.43
2023-03-04T07:43:43.603Z,77.15
2023-03-04T07:46:10.664Z,77.40
2023-03-04T07:48:37.604Z,76.84
2023-03-04T07:51:07.833Z,74.64
2023-03-04T07:53:36.025Z,72.32
2023-03-04T07:56:03.867Z,71.54
2023-03-04T07:58:30.622Z,72.14
2023-03-04T08:00:57.656Z,72.49
2023-03-04T08:03:24.601Z,69.88
2023-03-04T08:05:51.772Z,70.04
2023-03-04T08:08:18.434Z,66.67
2023-03-04T08:10:45.673Z,62.99
2023-03-04T08:13:12.340Z,63.16
2023-03-04T08:15:45.428Z,59.29
2023-03-04T08:18:12.183Z,59.13
2023-03-04T08:20:42.770Z,61.10
2023-03-04T08:23:10.843Z,59.29
2023-03-04T08:25:42.556Z,57.83
2023-03-04T08:28:10.604Z,58.10
2023-03-04T08:30:39.305Z,55.58
2023-03-04T08:33:06.398Z,54.14
2023-03-04T08:35:36.159Z,53.59
2023-03-04T08:38:02.887Z,53.84
2023-03-04T08:40:29.634Z,51.79
2023-03-04T08:42:56.318Z,52.54
2023-03-04T08:45:23.181Z,51.82
2023-03-04T08:47:51.730Z,51.91
2023-03-04T08:50:20.171Z,51.66
2023-03-04T08:52:48.184Z,51.45
2023-03-04T08:55:15.018Z,53.10
2023-03-04T08:57:41.613Z,52.61
2023-03-04T09:00:09.024Z,52.44
2023-03-04T09:02:35.947Z,51.98
2023-03-04T09:05:02.655Z,52.68
2023-03-04T09:07:29.297Z,53.08
2023-03-04T09:09:55.926Z,52.59
2023-03-04T09:12:22.690Z,49.98
2023-03-04T09:15:01.152Z,50.63
2023-03-04T09:17:35.299Z,50.57
2023-03-04T09:20:04.448Z,51.28
2023-03-04T09:22:31.780Z,51.54
2023-03-04T09:24:58.418Z,50.56
2023-03-04T09:27:25.551Z,50.59
2023-03-04T09:29:52.199Z,49.52
2023-03-04T09:32:19.001Z,49.24
2023-03-04T09:34:45.696Z,49.44
2023-03-04T09:37:12.349Z,50.43
2023-03-04T09:39:39.091Z,51.06
2023-03-04T09:42:08.191Z,50.28
2023-03-04T09:44:40.054Z,49.49
2023-03-04T09:47:13.850Z,50.79
2023-03-04T09:49:44.966Z,49.72
2023-03-04T09:52:52.607Z,49.77
2023-03-04T09:55:35.997Z,49.49
2023-03-04T09:58:30.275Z,48.55
2023-03-04T10:01:09.709Z,49.15
2023-03-04T10:03:45.470Z,49.38
2023-03-04T10:06:18.302Z,48.15
2023-03-04T10:09:26.791Z,48.42
2023-03-04T10:12:01.054Z,48.14
2023-03-04T10:14:35.691Z,46.34
2023-03-04T10:17:19.051Z,46.92
2023-03-04T10:19:58.492Z,48.09
2023-03-04T10:22:28.163Z,46.65
2023-03-04T10:24:59.585Z,47.17
2023-03-04T10:27:26.486Z,49.29
2023-03-04T10:29:53.217Z,47.00
2023-03-04T10:32:20.991Z,47.14
2023-03-04T10:34:47.822Z,47.48
2023-03-04T10:37:17.090Z,47.38
2023-03-04T10:39:46.546Z,48.24
2023-03-04T10:42:16.107Z,47.91
2023-03-04T10:44:51.477Z,47.43
2023-03-04T10:47:18.123Z,47.98
2023-03-04T10:50:16.941Z,45.49
2023-03-04T10:52:49.712Z,45.59
2023-03-04T10:55:24.908Z,44.81
2023-03-04T10:57:57.900Z,45.36
2023-03-04T11:00:31.308Z,45.62
2023-03-04T11:03:22.536Z,44.82
2023-03-04T11:05:49.946Z,45.08
2023-03-04T11:08:19.819Z,44.05
2023-03-04T11:10:46.930Z,43.37
2023-03-04T11:13:19.517Z,44.21
2023-03-04T11:16:06.052Z,43.86
2023-03-04T11:18:46.989Z,42.75
2023-03-04T11:21:20.580Z,42.40
2023-03-04T11:23:58.605Z,41.52
2023-03-04T11:26:48.862Z,40.50
2023-03-04T11:29:23.162Z,41.40
2023-03-04T11:32:00.860Z,40.55
2023-03-04T11:34:27.527Z,41.70
2023-03-04T11:37:08.514Z,42.03
2023-03-04T11:39:50.698Z,40.82
2023-03-04T11:42:37.500Z,41.97
2023-03-04T11:45:28.453Z,41.22
2023-03-04T11:48:23.944Z,42.13
2023-03-04T11:50:54.682Z,41.75
2023-03-04T11:53:39.936Z,39.65
2023-03-04T11:56:27.560Z,40.86
2023-03-04T11:59:09.289Z,40.54
2023-03-04T12:01:54.515Z,40.07
2023-03-04T12:04:58.502Z,40.47
2023-03-04T12:07:45.208Z,40.53
2023-03-04T12:10:30.325Z,40.61
2023-03-04T12:13:35.739Z,41.45
2023-03-04T12:16:33.120Z,41.23
2023-03-04T12:19:29.916Z,39.75
2023-03-04T12:22:11.954Z,40.58
2023-03-04T12:24:42.592Z,41.04
2023-03-04T12:27:38.866Z,41.08
2023-03-04T12:30:24.373Z,40.50
2023-03-04T12:33:00.568Z,41.43
2023-03-04T12:35:48.305Z,41.70
2023-03-04T12:38:20.828Z,41.87
2023-03-04T12:41:25.652Z,40.90
2023-03-04T12:44:00.924Z,41.87
2023-03-04T12:46:49.294Z,41.03
2023-03-04T12:49:52.584Z,40.94
2023-03-04T12:52:47.705Z,41.08
2023-03-04T12:55:18.971Z,41.01
2023-03-04T12:57:46.453Z,40.46
2023-03-04T13:00:13.065Z,40.62
2023-03-04T13:02:45.507Z,41.33
2023-03-04T13:05:40.361Z,40.51
2023-03-04T13:08:15.461Z,40.72
2023-03-04T13:10:42.071Z,40.32
2023-03-04T13:13:42.088Z,40.87
2023-03-04T13:16:11.904Z,40.74
2023-03-04T13:18:41.376Z,40.27
2023-03-04T13:21:30.880Z,40.64
2023-03-04T13:24:01.923Z,40.77
2023-03-04T13:26:29.868Z,41.22
2023-03-04T13:29:25.639Z,39.63
2023-03-04T13:32:20.431Z,40.37
2023-03-04T13:34:51.780Z,40.87
2023-03-04T13:37:28.880Z,40.38
2023-03-04T13:40:20.594Z,40.43
2023-03-04T13:42:47.372Z,39.76
2023-03-04T13:45:29.494Z,39.22
2023-03-04T13:47:56.227Z,39.74
2023-03-04T13:50:35.336Z,40.12
2023-03-04T13:54:11.619Z,35.97
2023-03-04T13:56:41.867Z,38.54
2023-03-04T13:59:21.819Z,38.33
2023-03-04T14:01:52.458Z,36.83
2023-03-04T14:04:28.036Z,38.08
2023-03-04T14:06:57.269Z,36.86
2023-03-04T14:09:32.732Z,36.42
2023-03-04T14:12:02.428Z,34.17
2023-03-04T14:14:51.383Z,33.84
2023-03-04T14:17:23.067Z,33.57
2023-03-04T14:19:52.502Z,33.64
2023-03-04T14:22:40.104Z,33.35
2023-03-04T14:25:18.910Z,33.23
2023-03-04T14:27:46.369Z,33.78
2023-03-04T14:30:35.492Z,33.67
2023-03-04T14:33:15.294Z,32.99
2023-03-04T14:35:48.315Z,33.44
2023-03-04T14:38:34.226Z,33.84
2023-03-04T14:41:12.231Z,33.85
2023-03-04T14:43:49.926Z,33.73
2023-03-04T14:46:18.552Z,34.34
2023-03-04T14:48:50.396Z,34.94
2023-03-04T14:51:30.368Z,33.92
2023-03-04T14:53:58.054Z,33.41
2023-03-04T14:56:30.423Z,34.08
2023-03-04T14:58:58.722Z,33.52
2023-03-04T15:01:36.804Z,34.80
2023-03-04T15:04:14.325Z,34.83
2023-03-04T15:06:50.416Z,34.59
2023-03-04T15:09:20.032Z,34.25
2023-03-04T15:11:50.982Z,34.99
2023-03-04T15:14:45.296Z,35.79
2023-03-04T15:17:27.063Z,35.98
2023-03-04T15:20:02.785Z,37.24
2023-03-04T15:22:29.917Z,37.31
2023-03-04T15:24:56.835Z,39.04
2023-03-04T15:27:24.573Z,37.37
2023-03-04T15:29:55.601Z,38.78
2023-03-04T15:32:23.658Z,38.13
2023-03-04T15:34:50.379Z,38.36
2023-03-04T15:37:21.943Z,38.05
2023-03-04T15:39:48.829Z,38.79
2023-03-04T15:42:15.527Z,38.93
2023-03-04T15:44:42.470Z,40.03
2023-03-04T15:47:10.914Z,39.04
2023-03-04T15:49:37.499Z,39.86
2023-03-04T15:52:06.438Z,39.70
2023-03-04T15:54:33.446Z,37.58
2023-03-04T15:57:00.120Z,40.97
2023-03-04T15:59:26.742Z,40.30
2023-03-04T16:01:53.450Z,41.51
2023-03-04T16:04:20.214Z,40.39
2023-03-04T16:06:49.124Z,41.69
2023-03-04T16:09:18.529Z,41.97
2023-03-04T16:11:46.153Z,41.39
2023-03-04T16:14:14.123Z,42.57
2023-03-04T16:16:44.642Z,41.36
2023-03-04T16:19:11.290Z,41.15
2023-03-04T16:21:37.991Z,40.75
2023-03-04T16:24:05.144Z,41.47
2023-03-04T16:26:40.937Z,42.56
2023-03-04T16:29:09.435Z,42.95
2023-03-04T16:31:36.227Z,42.59
2023-03-04T16:34:02.921Z,43.27
2023-03-04T16:36:29.781Z,42.38
2023-03-04T16:38:59.540Z,40.70
2023-03-04T16:41:30.325Z,41.99
2023-03-04T16:44:00.713Z,42.45
2023-03-04T16:46:27.912Z,42.78
2023-03-04T16:48:54.854Z,42.32
2023-03-04T16:51:23.614Z,43.08
2023-03-04T16:53:57.367Z,43.40
2023-03-04T16:56:24.065Z,43.49
2023-03-04T16:58:51.449Z,43.52
2023-03-04T17:01:20.098Z,43.57
2023-03-04T17:03:47.177Z,43.93
2023-03-04T17:06:14.976Z,44.53
2023-03-04T17:08:41.883Z,44.18
2023-03-04T17:11:12.311Z,45.16
2023-03-04T17:13:38.958Z,44.13
2023-03-04T17:16:05.894Z,45.19
2023-03-04T17:18:32.698Z,44.72
2023-03-04T17:21:08.243Z,43.82
2023-03-04T17:23:38.285Z,45.24
2023-03-04T17:26:05.370Z,45.24
2023-03-04T17:28:32.588Z,45.48
2023-03-04T17:30:59.708Z,45.39
2023-03-04T17:33:26.432Z,45.38
2023-03-04T17:35:53.304Z,45.75
2023-03-04T17:38:20.136Z,45.47
2023-03-04T17:40:47.030Z,45.44
2023-03-04T17:43:13.812Z,46.34
2023-03-04T17:45:41.914Z,46.68
2023-03-04T17:48:10.878Z,45.94
2023-03-04T17:50:37.591Z,46.35
2023-03-04T17:53:04.191Z,45.32
2023-03-04T17:55:30.794Z,45.85
2023-03-04T17:57:57.640Z,45.08
2023-03-04T18:00:24.433Z,46.03
2023-03-04T18:02:51.179Z,46.32
2023-03-04T18:05:17.924Z,47.01
2023-03-04T18:07:44.571Z,47.67
2023-03-04T18:10:11.413Z,47.12
2023-03-04T18:12:38.161Z,48.46
2023-03-04T18:15:05.261Z,48.94
2023-03-04T18:17:31.912Z,49.30
2023-03-04T18:19:58.569Z,50.20
2023-03-04T18:22:25.243Z,50.16
2023-03-04T18:24:51.886Z,51.51
2023-03-04T18:27:18.689Z,51.55
2023-03-04T18:29:47.637Z,51.24
2023-03-04T18:32:14.633Z,51.73
2023-03-04T18:34:41.328Z,52.09
2023-03-04T18:37:08.041Z,53.89
2023-03-04T18:39:34.670Z,54.17
2023-03-04T18:42:01.291Z,54.93
2023-03-04T18:44:28.017Z,54.71
2023-03-04T18:46:56.972Z,55.81
2023-03-04T18:49:24.157Z,55.28
2023-03-04T18:51:51.586Z,54.93
2023-03-04T18:54:18.227Z,55.47
2023-03-04T18:56:53.108Z,56.51
2023-03-04T18:59:22.623Z,57.38
2023-03-04T19:01:51.382Z,58.77
2023-03-04T19:04:20.144Z,58.16
2023-03-04T19:06:47.271Z,58.73
2023-03-04T19:09:13.901Z,58.65
2023-03-04T19:11:40.599Z,60.15
2023-03-04T19:14:07.204Z,59.60
2023-03-04T19:16:34.110Z,61.14
2023-03-04T19:19:02.521Z,61.78
2023-03-04T19:21:29.178Z,60.43
2023-03-04T19:23:55.930Z,59.61
2023-03-04T19:26:22.737Z,61.33
2023-03-04T19:28:49.366Z,62.10
2023-03-04T19:31:15.994Z,62.57
2023-03-04T19:33:42.645Z,62.45
2023-03-04T19:36:10.372Z,62.45
2023-03-04T19:38:37.081Z,64.54
2023-03-04T19:41:15.207Z,64.86
2023-03-04T19:43:41.994Z,65.07
2023-03-04T19:46:10.446Z,65.36
2023-03-04T19:48:38.164Z,66.14
2023-03-04T19:51:14.123Z,66.46
2023-03-04T19:53:40.769Z,65.44
2023-03-04T19:56:07.995Z,65.77
2023-03-04T19:58:34.639Z,66.78
2023-03-04T20:01:01.600Z,66.99
2023-03-04T20:03:28.373Z,67.01
2023-03-04T20:06:08.670Z,66.79
2023-03-04T20:08:38.376Z,68.03
2023-03-04T20:11:11.917Z,66.57
2023-03-04T20:13:38.710Z,67.04
2023-03-04T20:16:12.110Z,68.21
2023-03-04T20:18:39.970Z,68.81
2023-03-04T20:21:06.912Z,67.78
2023-03-04T20:23:34.159Z,66.58
2023-03-04T20:26:01.021Z,68.11
2023-03-04T20:28:29.611Z,68.69
2023-03-04T20:31:11.673Z,68.03
2023-03-04T20:33:38.565Z,67.29
2023-03-04T20:36:05.488Z,67.50
2023-03-04T20:38:34.893Z,69.18
2023-03-04T20:41:01.601Z,68.73
2023-03-04T20:43:28.264Z,68.60
2023-03-04T20:45:55.482Z,69.09
2023-03-04T20:48:22.173Z,69.09
2023-03-04T20:50:48.984Z,69.04
2023-03-04T20:53:15.607Z,66.96
2023-03-04T20:55:42.295Z,67.07
2023-03-04T20:58:08.939Z,65.96
2023-03-04T21:00:35.628Z,66.63
2023-03-04T21:03:02.486Z,65.75
2023-03-04T21:05:30.855Z,65.73
2023-03-04T21:07:58.932Z,65.58
2023-03-04T21:10:25.711Z,66.07
2023-03-04T21:12:52.333Z,68.56
2023-03-04T21:15:19.085Z,68.78
2023-03-04T21:17:45.729Z,69.43
2023-03-04T21:20:14.731Z,70.02
2023-03-04T21:22:41.405Z,68.60
2023-03-04T21:25:08.613Z,69.62
2023-03-04T21:27:35.259Z,70.59
2023-03-04T21:30:01.998Z,70.83
2023-03-04T21:32:28.908Z,70.73
2023-03-04T21:34:56.025Z,70.13
2023-03-04T21:37:24.642Z,68.63
2023-03-04T21:39:51.516Z,68.72
2023-03-04T21:42:18.343Z,70.79
2023-03-04T21:44:49.602Z,70.02
2023-03-04T21:47:17.246Z,71.40
2023-03-04T21:49:44.102Z,71.39
2023-03-04T21:52:10.741Z,72.07
2023-03-04T21:54:37.417Z,73.75
2023-03-04T21:57:04.128Z,73.26
2023-03-04T21:59:30.771Z,73.04
2023-03-04T22:01:57.438Z,73.39
2023-03-04T22:04:24.065Z,72.53
2023-03-04T22:06:50.708Z,73.02
2023-03-04T22:09:17.346Z,72.91
2023-03-04T22:11:46.206Z,73.17
2023-03-04T22:14:13.236Z,71.68
2023-03-04T22:16:53.946Z,70.62
2023-03-04T22:19:26.556Z,71.33
2023-03-04T22:21:53.814Z,70.79
2023-03-04T22:24:21.351Z,70.47
2023-03-04T22:26:48.755Z,71.75
2023-03-04T22:29:15.516Z,72.37
2023-03-04T22:31:42.301Z,72.20
2023-03-04T22:34:14.852Z,71.57
2023-03-04T22:36:43.400Z,71.92
2023-03-04T22:39:15.584Z,71.34
2023-03-04T22:41:42.446Z,72.45
2023-03-04T22:44:09.113Z,71.30
2023-03-04T22:46:38.071Z,72.74
2023-03-04T22:49:07.540Z,74.68
2023-03-04T22:51:34.261Z,73.99
2023-03-04T22:54:00.941Z,74.59
2023-03-04T22:56:27.625Z,75.83
2023-03-04T22:58:57.184Z,76.27
2023-03-04T23:01:24.058Z,75.61
2023-03-04T23:03:51.129Z,74.38
2023-03-04T23:06:21.165Z,74.20
2023-03-04T23:08:49.897Z,75.39
2023-03-04T23:11:23.453Z,74.67
2023-03-04T23:13:50.883Z,75.39
2023-03-04T23:16:18.473Z,73.83
2023-03-04T23:18:46.670Z,74.53
2023-03-04T23:21:17.148Z,74.20
2023-03-04T23:23:47.314Z,74.23
2023-03-04T23:26:19.654Z,75.44
2023-03-04T23:28:46.509Z,75.49
2023-03-04T23:31:14.310Z,76.40
2023-03-04T23:33:42.446Z,76.46
2023-03-04T23:36:15.481Z,75.25
2023-03-04T23:38:47.892Z,74.12
2023-03-04T23:41:27.018Z,75.23
2023-03-04T23:43:58.814Z,74.96
2023-03-04T23:46:26.228Z,75.36
2023-03-04T23:48:54.327Z,74.20
2023-03-04T23:51:28.393Z,75.25
2023-03-04T23:53:55.929Z,75.58
2023-03-04T23:56:25.308Z,74.97
2023-03-04T23:58:55.143Z,75.45
